Time;durP1;ratioP1;P1;durP2;ratioP2;P2;SDS_P1;SDS_P2;PMS_P1;PMS_P2;Temp;Humidity;BMP_temperature;BMP_pressure;BME280_temperature;BME280_humidity;BME280_pressure;Samples;Min_cycle;Max_cycle;Signal;HPM_P1;HPM_P2
2021/10/03 00:00:50;;;;;;;1.08;0.70;;;17.40;99.90;;;;;;5035786;28;20160;-79
2021/10/03 00:03:19;;;;;;;0.60;0.60;;;17.30;99.90;;;;;;5034620;28;20311;-80
2021/10/03 00:05:47;;;;;;;0.70;0.70;;;17.30;99.90;;;;;;5035572;28;20616;-78
2021/10/03 00:08:14;;;;;;;1.55;0.70;;;17.40;99.90;;;;;;5035434;28;20167;-80
2021/10/03 00:10:40;;;;;;;4.00;1.02;;;17.30;99.90;;;;;;5034318;28;20202;-83
2021/10/03 00:13:06;;;;;;;0.80;0.80;;;17.40;99.90;;;;;;5034813;28;20172;-80
2021/10/03 00:15:34;;;;;;;1.15;1.05;;;17.30;99.90;;;;;;5035794;28;20183;-79
2021/10/03 00:18:00;;;;;;;0.80;0.80;;;17.30;99.90;;;;;;5035502;28;20277;-79
2021/10/03 00:20:26;;;;;;;0.80;0.60;;;17.30;99.90;;;;;;5035474;28;20267;-78
2021/10/03 00:22:52;;;;;;;0.75;0.75;;;17.20;99.90;;;;;;5035998;28;20625;-83
2021/10/03 00:25:18;;;;;;;0.60;0.60;;;17.20;99.90;;;;;;5035517;28;20238;-80
2021/10/03 00:27:45;;;;;;;3.13;0.70;;;17.20;99.90;;;;;;5035450;28;20172;-81
2021/10/03 00:30:13;;;;;;;0.93;0.70;;;17.20;99.90;;;;;;5034231;28;20184;-78
2021/10/03 00:32:38;;;;;;;2.40;0.80;;;17.20;99.90;;;;;;5034956;28;20278;-80
2021/10/03 00:35:05;;;;;;;1.60;0.85;;;17.20;99.90;;;;;;5034751;28;20204;-79
2021/10/03 00:37:31;;;;;;;0.60;0.60;;;17.20;99.90;;;;;;5033748;28;20302;-78
2021/10/03 00:39:56;;;;;;;0.40;0.40;;;17.30;99.90;;;;;;5034575;28;20222;-79
2021/10/03 00:42:23;;;;;;;0.50;0.50;;;17.30;99.90;;;;;;5034936;28;20306;-79
2021/10/03 00:44:48;;;;;;;0.55;0.55;;;17.30;99.90;;;;;;5035313;28;20175;-82
2021/10/03 00:47:15;;;;;;;1.48;0.70;;;17.40;99.90;;;;;;5035773;28;20172;-84
2021/10/03 00:49:43;;;;;;;0.63;0.50;;;17.30;99.90;;;;;;5035678;28;20267;-85
2021/10/03 00:52:09;;;;;;;0.50;0.40;;;17.30;99.90;;;;;;5035616;28;20168;-80
2021/10/03 00:54:35;;;;;;;0.40;0.40;;;17.30;99.90;;;;;;5036528;28;20163;-83
2021/10/03 00:57:01;;;;;;;1.08;0.60;;;17.40;99.90;;;;;;5035059;28;20211;-82
2021/10/03 00:59:27;;;;;;;0.77;0.50;;;17.40;99.90;;;;;;5035118;28;20191;-83
2021/10/03 01:01:53;;;;;;;0.85;0.60;;;17.30;99.90;;;;;;5035140;28;20160;-80
2021/10/03 01:04:18;;;;;;;1.75;0.75;;;17.30;99.90;;;;;;5033885;28;20170;-79
2021/10/03 01:06:45;;;;;;;0.55;0.55;;;17.30;99.90;;;;;;5035290;28;20160;-82
2021/10/03 01:09:12;;;;;;;0.43;0.43;;;17.30;99.90;;;;;;5035228;28;20659;-81
2021/10/03 01:11:38;;;;;;;0.52;0.50;;;17.30;99.90;;;;;;5035055;28;20616;-82
2021/10/03 01:14:03;;;;;;;0.73;0.60;;;17.30;99.90;;;;;;5033694;28;20198;-82
2021/10/03 01:16:29;;;;;;;2.85;0.60;;;17.40;99.90;;;;;;5034920;28;20229;-84
2021/10/03 01:18:58;;;;;;;0.80;0.60;;;17.40;99.90;;;;;;5034634;28;20250;-80
2021/10/03 01:21:25;;;;;;;1.42;0.75;;;17.40;99.90;;;;;;5035069;28;20171;-82
2021/10/03 01:23:55;;;;;;;0.60;0.60;;;17.30;99.90;;;;;;5034890;28;20168;-83
2021/10/03 01:26:21;;;;;;;0.63;0.63;;;17.30;99.90;;;;;;5034954;28;20582;-83
2021/10/03 01:28:48;;;;;;;1.98;0.70;;;17.30;99.90;;;;;;5033452;28;20191;-81
2021/10/03 01:31:14;;;;;;;0.60;0.60;;;17.30;99.90;;;;;;5035161;28;20306;-81
2021/10/03 01:33:40;;;;;;;3.90;0.80;;;17.30;99.90;;;;;;5034594;28;20237;-84
2021/10/03 01:36:06;;;;;;;1.50;0.98;;;17.40;99.90;;;;;;5034473;28;20168;-83
2021/10/03 01:38:33;;;;;;;1.02;0.80;;;17.30;99.90;;;;;;5034490;28;20558;-80
2021/10/03 01:40:59;;;;;;;0.85;0.73;;;17.30;99.90;;;;;;5035211;28;20160;-84
2021/10/03 01:43:25;;;;;;;0.70;0.70;;;17.30;99.90;;;;;;5034290;28;20175;-82
2021/10/03 01:45:51;;;;;;;1.08;0.70;;;17.30;99.90;;;;;;5034814;28;20171;-81
2021/10/03 01:48:20;;;;;;;2.13;1.00;;;17.20;99.90;;;;;;5034482;28;20215;-83
2021/10/03 01:50:48;;;;;;;1.08;1.00;;;17.30;99.90;;;;;;5034245;28;20533;-81
2021/10/03 01:53:19;;;;;;;1.00;0.80;;;17.30;99.90;;;;;;5034605;28;20191;-84
2021/10/03 01:55:46;;;;;;;1.23;0.80;;;17.30;99.90;;;;;;5034488;28;20223;-81
2021/10/03 01:58:15;;;;;;;1.00;0.85;;;17.30;99.90;;;;;;5034091;28;20675;-81
2021/10/03 02:00:43;;;;;;;1.00;0.95;;;17.30;99.90;;;;;;5034582;28;20238;-83
2021/10/03 02:03:09;;;;;;;1.20;1.02;;;17.30;99.90;;;;;;5034296;28;20168;-82
2021/10/03 02:05:42;;;;;;;0.88;0.82;;;17.20;99.90;;;;;;5034078;28;20168;-85
2021/10/03 02:08:09;;;;;;;0.93;0.93;;;17.20;99.90;;;;;;5033096;28;20539;-80
2021/10/03 02:10:37;;;;;;;1.25;1.10;;;17.40;99.90;;;;;;5034732;28;20664;-83
2021/10/03 02:13:04;;;;;;;0.95;0.95;;;17.40;99.90;;;;;;5033946;28;20186;-82
2021/10/03 02:15:30;;;;;;;2.35;1.00;;;17.40;99.90;;;;;;5033986;28;20614;-83
2021/10/03 02:17:57;;;;;;;1.48;0.68;;;17.40;99.90;;;;;;5034246;28;20204;-82
2021/10/03 02:20:23;;;;;;;0.40;0.30;;;17.30;99.90;;;;;;5033667;28;20234;-82
2021/10/03 02:22:49;;;;;;;0.47;0.47;;;17.00;99.90;;;;;;5033857;28;20172;-82
2021/10/03 02:25:16;;;;;;;0.75;0.50;;;17.00;99.90;;;;;;5034188;28;20640;-81
2021/10/03 02:27:42;;;;;;;2.65;0.73;;;16.90;99.90;;;;;;5033662;28;20176;-81
2021/10/03 02:30:08;;;;;;;1.90;0.63;;;16.70;99.90;;;;;;5033838;28;20226;-82
2021/10/03 02:32:34;;;;;;;0.40;0.40;;;16.70;99.90;;;;;;5033974;28;20259;-83
2021/10/03 02:35:01;;;;;;;1.90;0.50;;;16.60;99.90;;;;;;5033246;28;20191;-79
2021/10/03 02:37:26;;;;;;;0.95;0.55;;;16.50;99.90;;;;;;5033554;28;20208;-81
2021/10/03 02:39:53;;;;;;;1.45;0.38;;;16.50;99.90;;;;;;5033464;28;20187;-84
2021/10/03 02:42:19;;;;;;;2.75;0.60;;;16.30;99.90;;;;;;5033850;28;20174;-79
2021/10/03 02:44:45;;;;;;;1.13;0.50;;;16.30;99.90;;;;;;5033739;28;20156;-81
2021/10/03 02:47:12;;;;;;;0.57;0.40;;;16.30;99.90;;;;;;5033555;28;20172;-84
2021/10/03 02:49:44;;;;;;;1.38;0.30;;;16.20;99.90;;;;;;5032787;28;20187;-85
2021/10/03 02:52:11;;;;;;;2.85;0.45;;;16.20;99.90;;;;;;5032945;28;20172;-80
2021/10/03 02:54:38;;;;;;;0.20;0.20;;;16.30;99.90;;;;;;5032666;28;20171;-80
2021/10/03 02:57:05;;;;;;;2.63;0.60;;;16.50;99.90;;;;;;5032814;28;20655;-82
2021/10/03 02:59:31;;;;;;;0.35;0.35;;;16.60;99.90;;;;;;5032947;28;20663;-82
2021/10/03 03:01:57;;;;;;;0.52;0.40;;;16.40;99.90;;;;;;5032679;28;20175;-81
2021/10/03 03:04:23;;;;;;;0.30;0.30;;;16.40;99.90;;;;;;5032855;28;20218;-86
2021/10/03 03:06:48;;;;;;;1.55;0.50;;;16.30;99.90;;;;;;5033220;28;20238;-81
2021/10/03 03:09:14;;;;;;;1.20;0.30;;;16.10;99.90;;;;;;5031813;28;20199;-83
2021/10/03 03:11:39;;;;;;;3.75;0.50;;;16.20;99.90;;;;;;5032960;28;20168;-82
2021/10/03 03:14:05;;;;;;;1.33;0.45;;;16.30;99.90;;;;;;5031667;28;20176;-81
2021/10/03 03:16:31;;;;;;;0.73;0.40;;;16.20;99.90;;;;;;5032862;28;20646;-82
2021/10/03 03:18:56;;;;;;;0.35;0.35;;;16.30;99.90;;;;;;5031521;28;20822;-83
2021/10/03 03:21:22;;;;;;;2.67;0.32;;;16.50;99.90;;;;;;5033116;28;20218;-80
2021/10/03 03:23:48;;;;;;;0.30;0.30;;;16.50;99.90;;;;;;5031712;28;20636;-81
2021/10/03 03:26:14;;;;;;;0.63;0.30;;;16.40;99.90;;;;;;5033151;28;20164;-79
2021/10/03 03:28:39;;;;;;;0.43;0.43;;;16.20;99.90;;;;;;5034306;28;20192;-81
2021/10/03 03:31:05;;;;;;;0.90;0.30;;;16.20;99.90;;;;;;5033665;28;20176;-82
2021/10/03 03:33:31;;;;;;;0.52;0.30;;;16.00;99.90;;;;;;5033975;28;20183;-84
2021/10/03 03:35:57;;;;;;;0.35;0.30;;;16.00;99.90;;;;;;5034157;28;20180;-81
2021/10/03 03:38:22;;;;;;;5.50;0.40;;;16.00;99.90;;;;;;5033671;28;20290;-82
2021/10/03 03:40:48;;;;;;;0.52;0.50;;;15.90;99.90;;;;;;5033613;28;20168;-81
2021/10/03 03:43:14;;;;;;;0.47;0.35;;;15.80;99.90;;;;;;5033840;28;20229;-82
2021/10/03 03:45:40;;;;;;;0.60;0.55;;;15.70;99.90;;;;;;5033376;28;20582;-85
2021/10/03 03:48:05;;;;;;;0.77;0.55;;;15.80;99.90;;;;;;5032594;28;20176;-83
2021/10/03 03:50:33;;;;;;;0.28;0.28;;;15.70;99.90;;;;;;5032230;28;20311;-81
2021/10/03 03:52:59;;;;;;;0.40;0.40;;;15.60;99.90;;;;;;5032475;28;20183;-85
2021/10/03 03:55:25;;;;;;;0.25;0.25;;;15.70;99.90;;;;;;5032281;28;20636;-80
2021/10/03 03:57:52;;;;;;;0.30;0.30;;;15.80;99.90;;;;;;5032164;28;20204;-82
2021/10/03 04:00:18;;;;;;;0.77;0.30;;;15.60;99.90;;;;;;5032408;28;20183;-83
2021/10/03 04:02:44;;;;;;;0.65;0.40;;;15.60;99.90;;;;;;5032540;28;20168;-82
2021/10/03 04:05:10;;;;;;;0.30;0.20;;;15.50;99.90;;;;;;5032067;28;20168;-84
2021/10/03 04:07:36;;;;;;;0.90;0.28;;;15.60;99.90;;;;;;5033882;28;20164;-83
2021/10/03 04:10:03;;;;;;;1.20;0.30;;;15.50;99.90;;;;;;5036030;28;20223;-86
2021/10/03 04:12:29;;;;;;;0.30;0.30;;;15.20;99.90;;;;;;5036076;28;20251;-84
2021/10/03 04:14:54;;;;;;;0.30;0.30;;;15.10;99.90;;;;;;5035691;28;20368;-82
2021/10/03 04:17:20;;;;;;;0.65;0.30;;;15.20;99.90;;;;;;5034565;28;20742;-80
2021/10/03 04:19:45;;;;;;;1.85;0.40;;;15.10;99.90;;;;;;5035916;28;20737;-85
2021/10/03 04:22:11;;;;;;;5.07;0.40;;;15.30;99.90;;;;;;5034623;28;20168;-87
2021/10/03 04:24:37;;;;;;;0.60;0.32;;;15.30;99.90;;;;;;5034691;28;20204;-80
2021/10/03 04:27:03;;;;;;;0.93;0.30;;;15.50;99.90;;;;;;5035457;28;20171;-79
2021/10/03 04:29:28;;;;;;;1.25;0.40;;;15.70;99.90;;;;;;5035535;28;20196;-80
2021/10/03 04:31:54;;;;;;;2.00;0.50;;;15.60;99.90;;;;;;5035743;28;20163;-85
2021/10/03 04:34:20;;;;;;;1.95;0.60;;;15.50;99.90;;;;;;5034115;28;20274;-81
2021/10/03 04:36:46;;;;;;;1.95;0.30;;;15.50;99.90;;;;;;5035637;28;20188;-80
2021/10/03 04:39:12;;;;;;;0.40;0.40;;;15.60;99.90;;;;;;5045593;28;20223;-80
2021/10/03 04:41:38;;;;;;;1.20;0.60;;;15.70;99.90;;;;;;5049293;28;20536;-78
2021/10/03 04:44:04;;;;;;;1.48;0.70;;;15.70;99.90;;;;;;5047177;28;20197;-79
2021/10/03 04:46:29;;;;;;;0.50;0.45;;;15.70;99.90;;;;;;5047213;28;20172;-80
2021/10/03 04:48:55;;;;;;;2.60;0.80;;;15.70;99.90;;;;;;5047338;28;20213;-82
2021/10/03 04:51:21;;;;;;;0.77;0.50;;;15.80;99.90;;;;;;5046486;28;20286;-78
2021/10/03 04:53:46;;;;;;;0.50;0.50;;;15.90;99.90;;;;;;5047774;28;20226;-77
2021/10/03 04:56:12;;;;;;;0.47;0.40;;;15.90;99.90;;;;;;5046359;28;20513;-79
2021/10/03 04:58:38;;;;;;;0.40;0.38;;;15.90;99.90;;;;;;5048823;28;20198;-81
2021/10/03 05:01:03;;;;;;;0.73;0.40;;;15.80;99.90;;;;;;5047322;28;20212;-82
2021/10/03 05:03:30;;;;;;;4.28;0.65;;;15.70;99.90;;;;;;5035249;28;20595;-84
2021/10/03 05:05:56;;;;;;;0.50;0.45;;;15.50;99.90;;;;;;5034759;28;20631;-82
2021/10/03 05:08:22;;;;;;;2.25;0.60;;;15.60;99.90;;;;;;5034969;28;20222;-81
2021/10/03 05:10:48;;;;;;;0.98;0.40;;;15.60;99.90;;;;;;5034870;28;20156;-80
2021/10/03 05:13:13;;;;;;;1.88;0.30;;;15.50;99.90;;;;;;5033482;28;20187;-80
2021/10/03 05:15:42;;;;;;;0.35;0.35;;;15.50;99.90;;;;;;5034850;28;20191;-84
2021/10/03 05:18:08;;;;;;;1.70;0.40;;;15.60;99.90;;;;;;5034183;28;20903;-84
2021/10/03 05:20:33;;;;;;;0.65;0.57;;;15.70;99.90;;;;;;5034446;28;20184;-83
2021/10/03 05:22:59;;;;;;;0.65;0.65;;;15.70;99.90;;;;;;5033391;28;20182;-80
2021/10/03 05:25:25;;;;;;;0.50;0.40;;;15.70;99.90;;;;;;5034472;28;20164;-80
2021/10/03 05:27:50;;;;;;;0.50;0.40;;;15.70;99.90;;;;;;5034913;28;20182;-82
2021/10/03 05:30:16;;;;;;;0.38;0.38;;;15.50;99.90;;;;;;5032878;28;20365;-82
2021/10/03 05:32:42;;;;;;;0.50;0.50;;;15.60;99.90;;;;;;5034016;28;20243;-84
2021/10/03 05:35:08;;;;;;;3.58;0.60;;;15.80;99.90;;;;;;5034137;28;21095;-82
2021/10/03 05:37:33;;;;;;;0.85;0.30;;;15.60;99.90;;;;;;5033746;28;20683;-84
2021/10/03 05:39:59;;;;;;;0.30;0.30;;;15.60;99.90;;;;;;5034102;28;20180;-80
2021/10/03 05:42:25;;;;;;;1.00;0.68;;;15.50;99.90;;;;;;5034200;28;20187;-81
2021/10/03 05:44:50;;;;;;;0.32;0.32;;;15.50;99.90;;;;;;5034002;28;20651;-87
2021/10/03 05:47:16;;;;;;;0.55;0.30;;;15.60;99.90;;;;;;5033945;28;20257;-81
2021/10/03 05:49:42;;;;;;;0.30;0.30;;;15.60;99.90;;;;;;5033960;28;20544;-82
2021/10/03 05:52:07;;;;;;;0.45;0.40;;;15.50;99.90;;;;;;5033911;28;20192;-84
2021/10/03 05:54:33;;;;;;;0.73;0.63;;;15.10;99.90;;;;;;5033961;28;20174;-82
2021/10/03 05:56:58;;;;;;;0.70;0.57;;;15.00;99.90;;;;;;5033556;28;20207;-78
2021/10/03 05:59:24;;;;;;;0.28;0.28;;;15.00;99.90;;;;;;5033747;28;20258;-78
2021/10/03 06:01:50;;;;;;;0.30;0.30;;;14.90;99.90;;;;;;5033408;28;20262;-80
2021/10/03 06:04:15;;;;;;;1.05;0.38;;;14.40;99.90;;;;;;5032793;28;20540;-80
2021/10/03 06:06:41;;;;;;;1.08;0.43;;;14.30;99.90;;;;;;5033488;28;20167;-79
2021/10/03 06:09:07;;;;;;;0.40;0.35;;;14.40;99.90;;;;;;5033453;28;20619;-79
2021/10/03 06:11:32;;;;;;;0.70;0.47;;;14.40;99.90;;;;;;5034353;28;20187;-83
2021/10/03 06:13:58;;;;;;;1.10;0.88;;;14.50;99.90;;;;;;5034395;28;20168;-83
2021/10/03 06:16:25;;;;;;;0.70;0.70;;;14.60;99.90;;;;;;5032870;28;20179;-81
2021/10/03 06:18:50;;;;;;;1.02;0.50;;;14.60;99.90;;;;;;5031978;28;20215;-86
2021/10/03 06:21:16;;;;;;;1.52;1.05;;;14.50;99.90;;;;;;5033337;28;20643;-84
2021/10/03 06:23:43;;;;;;;1.25;0.80;;;14.50;99.90;;;;;;5032984;28;20171;-82
2021/10/03 06:26:11;;;;;;;2.50;1.33;;;14.40;99.90;;;;;;5033369;28;20167;-81
2021/10/03 06:28:37;;;;;;;1.35;0.90;;;14.40;99.90;;;;;;5033849;28;20171;-82
2021/10/03 06:31:04;;;;;;;0.93;0.88;;;14.40;99.90;;;;;;5032888;28;20172;-80
2021/10/03 06:33:30;;;;;;;1.45;0.82;;;14.30;99.90;;;;;;5033554;28;20184;-81
2021/10/03 06:35:57;;;;;;;2.03;1.00;;;14.30;99.90;;;;;;5031514;28;20562;-82
2021/10/03 06:38:22;;;;;;;1.73;1.10;;;14.30;99.90;;;;;;5032429;28;20257;-80
2021/10/03 06:40:48;;;;;;;2.95;1.23;;;14.30;99.90;;;;;;5032802;28;20172;-82
2021/10/03 06:43:13;;;;;;;2.33;1.02;;;14.10;99.90;;;;;;5033565;28;20171;-86
2021/10/03 06:45:39;;;;;;;0.70;0.70;;;14.10;99.90;;;;;;5032659;28;20362;-83
2021/10/03 06:48:07;;;;;;;0.80;0.80;;;14.10;99.90;;;;;;5032982;28;20175;-81
2021/10/03 06:50:33;;;;;;;1.15;0.80;;;14.20;99.90;;;;;;5032010;28;20263;-79
2021/10/03 06:52:59;;;;;;;2.15;1.35;;;14.20;99.90;;;;;;5032073;28;20338;-80
2021/10/03 06:55:24;;;;;;;1.73;1.02;;;14.20;99.90;;;;;;5032863;28;20199;-80
2021/10/03 06:57:50;;;;;;;3.30;1.10;;;14.10;99.90;;;;;;5032640;28;20541;-81
2021/10/03 07:00:15;;;;;;;1.08;0.80;;;14.00;99.90;;;;;;5032193;28;20241;-76
2021/10/03 07:02:43;;;;;;;1.63;1.00;;;13.90;99.90;;;;;;5032120;28;20558;-81
2021/10/03 07:05:08;;;;;;;3.60;1.10;;;13.90;99.90;;;;;;5032685;28;20195;-80
2021/10/03 07:07:34;;;;;;;0.75;0.75;;;13.90;99.90;;;;;;5032246;28;20163;-79
2021/10/03 07:10:00;;;;;;;0.95;0.85;;;13.90;99.90;;;;;;5032178;28;20195;-81
2021/10/03 07:12:25;;;;;;;0.98;0.88;;;13.90;99.90;;;;;;5032393;28;20195;-82
2021/10/03 07:14:51;;;;;;;0.63;0.63;;;13.90;99.90;;;;;;5032206;28;20589;-79
2021/10/03 07:17:17;;;;;;;0.80;0.80;;;14.00;99.90;;;;;;5032253;28;20211;-80
2021/10/03 07:19:42;;;;;;;1.70;0.70;;;14.10;99.90;;;;;;5018785;28;20623;-79
2021/10/03 07:22:08;;;;;;;1.77;0.80;;;14.30;99.90;;;;;;5001905;28;20185;-79
2021/10/03 07:24:35;;;;;;;2.08;0.70;;;14.30;99.90;;;;;;5004661;28;20168;-81
2021/10/03 07:27:02;;;;;;;1.52;0.80;;;14.40;99.90;;;;;;4996898;28;20173;-79
2021/10/03 07:29:28;;;;;;;0.60;0.60;;;14.30;99.90;;;;;;4991249;28;20756;-78
2021/10/03 07:31:53;;;;;;;0.75;0.68;;;14.20;99.90;;;;;;4992706;28;20161;-81
2021/10/03 07:34:19;;;;;;;0.80;0.50;;;14.10;99.90;;;;;;4992932;28;20185;-82
2021/10/03 07:36:44;;;;;;;0.40;0.40;;;14.30;99.90;;;;;;4991600;28;20188;-83
2021/10/03 07:39:10;;;;;;;0.40;0.40;;;14.40;99.90;;;;;;4992440;28;20216;-81
2021/10/03 07:41:36;;;;;;;0.70;0.47;;;14.50;99.90;;;;;;4992849;28;20219;-79
2021/10/03 07:44:01;;;;;;;1.13;0.45;;;14.40;99.90;;;;;;4996558;28;20161;-81
2021/10/03 07:46:28;;;;;;;1.63;0.60;;;14.50;99.90;;;;;;4996686;28;20237;-80
2021/10/03 07:48:54;;;;;;;0.40;0.40;;;14.50;99.90;;;;;;4996478;28;20250;-79
2021/10/03 07:51:20;;;;;;;0.70;0.70;;;14.60;99.90;;;;;;4996038;28;20174;-81
2021/10/03 07:53:45;;;;;;;0.57;0.57;;;14.70;99.90;;;;;;4996163;28;20192;-78
2021/10/03 07:56:12;;;;;;;0.45;0.45;;;14.80;99.90;;;;;;4995881;28;20173;-80
2021/10/03 07:58:37;;;;;;;0.80;0.60;;;14.90;99.90;;;;;;4995731;28;20737;-79
2021/10/03 08:01:03;;;;;;;1.38;0.50;;;14.90;99.90;;;;;;4996706;28;20165;-80
2021/10/03 08:03:29;;;;;;;0.60;0.60;;;14.80;99.90;;;;;;4996044;28;20169;-78
2021/10/03 08:05:54;;;;;;;0.68;0.68;;;14.70;99.90;;;;;;4995434;28;20169;-79
2021/10/03 08:08:21;;;;;;;0.50;0.50;;;14.80;99.90;;;;;;5000793;28;20196;-85
2021/10/03 08:10:47;;;;;;;1.30;1.00;;;14.70;99.90;;;;;;5016934;28;20183;-89
2021/10/03 08:13:14;;;;;;;1.98;0.82;;;14.70;99.90;;;;;;5023569;28;20255;-90
2021/10/03 08:15:41;;;;;;;0.73;0.73;;;14.70;99.90;;;;;;5035051;28;20211;-89
2021/10/03 08:18:08;;;;;;;0.70;0.50;;;14.60;99.90;;;;;;5023167;28;20215;-86
2021/10/03 08:20:40;;;;;;;10.15;0.70;;;14.70;99.90;;;;;;5026024;28;20198;-89
2021/10/03 08:23:07;;;;;;;0.70;0.70;;;14.70;99.90;;;;;;5034274;28;20211;-79
2021/10/03 08:25:32;;;;;;;0.85;0.60;;;14.90;99.90;;;;;;5034649;28;20175;-78
2021/10/03 08:27:58;;;;;;;2.35;0.70;;;15.00;99.90;;;;;;5023258;28;20540;-78
2021/10/03 08:30:24;;;;;;;1.05;0.70;;;15.00;99.90;;;;;;5013513;28;20192;-80
2021/10/03 08:32:50;;;;;;;0.60;0.60;;;15.00;99.90;;;;;;5014191;28;20203;-79
2021/10/03 08:35:16;;;;;;;0.73;0.70;;;15.00;99.90;;;;;;5025761;28;20164;-85
2021/10/03 08:37:42;;;;;;;2.75;0.40;;;14.60;99.90;;;;;;5025712;28;20220;-84
2021/10/03 08:40:09;;;;;;;0.98;0.60;;;14.60;99.90;;;;;;5014313;28;20180;-82
2021/10/03 08:42:37;;;;;;;1.90;0.80;;;14.70;99.90;;;;;;5014635;28;20220;-85
2021/10/03 08:45:03;;;;;;;0.88;0.73;;;14.50;99.90;;;;;;5014239;28;20161;-82
2021/10/03 08:47:29;;;;;;;1.25;0.70;;;14.50;99.90;;;;;;5014372;28;20165;-85
2021/10/03 08:49:55;;;;;;;1.15;0.82;;;14.50;99.90;;;;;;5014324;28;20204;-85
2021/10/03 08:52:25;;;;;;;0.80;0.80;;;14.50;99.90;;;;;;5014577;28;20306;-79
2021/10/03 08:54:51;;;;;;;1.65;1.08;;;14.50;99.90;;;;;;5013911;28;20180;-79
2021/10/03 08:57:18;;;;;;;1.08;0.93;;;14.50;99.90;;;;;;5012946;28;20219;-82
2021/10/03 09:00:05;;;;;;;1.00;0.90;;;14.30;99.90;;;;;;5008002;28;20664;-81
2021/10/03 09:02:53;;;;;;;1.05;0.95;;;14.60;99.90;;;;;;5013102;28;20164;-82
2021/10/03 09:05:20;;;;;;;1.23;0.82;;;14.70;99.90;;;;;;4999518;28;20641;-82
2021/10/03 09:08:08;;;;;;;1.85;1.38;;;14.80;99.90;;;;;;5006937;28;20169;-82
2021/10/03 09:10:53;;;;;;;1.67;1.45;;;15.10;99.90;;;;;;5000894;28;20196;-82
2021/10/03 09:13:37;;;;;;;1.00;0.70;;;15.20;99.90;;;;;;5007509;28;20304;-78
2021/10/03 09:16:06;;;;;;;0.93;0.90;;;15.20;99.90;;;;;;5011449;28;20529;-81
2021/10/03 09:18:45;;;;;;;1.40;1.10;;;15.30;99.90;;;;;;5012141;28;20203;-81
2021/10/03 09:21:13;;;;;;;0.75;0.75;;;15.40;99.90;;;;;;5012720;28;20176;-80
2021/10/03 09:23:39;;;;;;;0.93;0.80;;;15.50;99.90;;;;;;5013618;28;20168;-81
2021/10/03 09:26:11;;;;;;;1.30;0.80;;;15.40;99.90;;;;;;5013066;28;20235;-82
2021/10/03 09:28:37;;;;;;;1.00;0.90;;;15.50;99.90;;;;;;5013673;28;20184;-81
2021/10/03 09:31:09;;;;;;;0.80;0.80;;;15.70;99.90;;;;;;5013463;28;20168;-84
2021/10/03 09:33:53;;;;;;;1.30;1.20;;;15.80;99.90;;;;;;5013817;28;20382;-82
2021/10/03 09:36:43;;;;;;;1.48;0.90;;;15.90;99.90;;;;;;5013612;28;20168;-85
2021/10/03 09:39:09;;;;;;;2.10;1.30;;;16.00;99.90;;;;;;5012377;28;20212;-81
2021/10/03 09:41:37;;;;;;;1.27;0.75;;;16.10;99.90;;;;;;5013242;28;20634;-80
2021/10/03 09:44:07;;;;;;;2.45;1.10;;;16.10;99.90;;;;;;5013225;28;20173;-81
2021/10/03 09:46:52;;;;;;;1.33;0.90;;;16.20;99.90;;;;;;5012890;28;20248;-80
2021/10/03 09:49:29;;;;;;;4.13;0.93;;;16.10;99.90;;;;;;5012305;28;20188;-80
2021/10/03 09:51:56;;;;;;;1.45;0.90;;;15.90;99.90;;;;;;5000688;28;20557;-78
2021/10/03 09:54:23;;;;;;;1.48;0.82;;;15.70;99.90;;;;;;5004774;28;20180;-77
2021/10/03 09:56:50;;;;;;;1.48;1.20;;;15.50;99.90;;;;;;5029428;28;20167;-78
2021/10/03 09:59:17;;;;;;;1.25;1.15;;;15.60;99.90;;;;;;5010971;28;20299;-85
2021/10/03 10:01:45;;;;;;;2.08;1.92;;;15.50;99.90;;;;;;5011524;28;20161;-81
2021/10/03 10:04:19;;;;;;;2.00;1.65;;;15.40;99.90;;;;;;5011646;28;20536;-81
2021/10/03 10:06:46;;;;;;;2.53;1.65;;;15.40;99.90;;;;;;5010464;28;20187;-84
2021/10/03 10:09:12;;;;;;;2.45;2.25;;;15.30;99.90;;;;;;5011994;28;20216;-79
2021/10/03 10:11:49;;;;;;;2.47;1.88;;;15.40;99.90;;;;;;5011948;28;20617;-84
2021/10/03 10:14:16;;;;;;;3.35;2.33;;;15.40;99.90;;;;;;5011822;28;20164;-82
2021/10/03 10:16:44;;;;;;;2.47;2.28;;;15.40;99.90;;;;;;5030454;28;20203;-80
2021/10/03 10:19:35;;;;;;;3.35;2.03;;;15.60;99.90;;;;;;5011846;28;20199;-80
2021/10/03 10:22:14;;;;;;;3.25;2.92;;;15.70;99.90;;;;;;5012489;28;20237;-80
2021/10/03 10:24:49;;;;;;;3.10;2.28;;;15.60;99.90;;;;;;5012314;28;20267;-79
2021/10/03 10:27:21;;;;;;;2.83;2.55;;;15.60;99.90;;;;;;5010992;28;20164;-78
2021/10/03 10:29:58;;;;;;;4.10;3.70;;;15.80;99.90;;;;;;5012083;28;20191;-79
2021/10/03 10:32:33;;;;;;;4.38;3.70;;;15.70;99.90;;;;;;5012764;28;20183;-78
2021/10/03 10:35:07;;;;;;;3.45;2.90;;;15.60;99.90;;;;;;5010856;28;20594;-79
2021/10/03 10:37:59;;;;;;;2.97;2.67;;;15.70;99.90;;;;;;5012018;28;20204;-79
2021/10/03 10:40:28;;;;;;;3.75;2.83;;;15.80;99.90;;;;;;5012839;28;20235;-80
2021/10/03 10:43:02;;;;;;;2.60;2.28;;;15.90;99.90;;;;;;5012588;28;20674;-80
2021/10/03 10:45:28;;;;;;;2.72;2.50;;;15.90;99.90;;;;;;5012596;28;20239;-81
2021/10/03 10:48:08;;;;;;;2.95;2.42;;;16.10;99.90;;;;;;5012554;28;20236;-81
2021/10/03 10:50:38;;;;;;;2.60;2.40;;;16.20;99.90;;;;;;5012073;28;20185;-80
2021/10/03 10:53:22;;;;;;;2.63;2.22;;;16.30;99.90;;;;;;5012378;28;20184;-80
2021/10/03 10:56:10;;;;;;;3.30;2.70;;;16.10;99.90;;;;;;5011003;28;20200;-79
2021/10/03 10:58:51;;;;;;;8.07;7.28;;;16.20;99.90;;;;;;5012218;28;20215;-79
2021/10/03 11:01:34;;;;;;;15.45;10.13;;;16.10;99.90;;;;;;5012609;28;20233;-82
2021/10/03 11:04:07;;;;;;;8.48;6.38;;;16.10;99.90;;;;;;5012343;28;20873;-80
2021/10/03 11:06:33;;;;;;;6.50;3.40;;;16.10;99.90;;;;;;5012371;28;20199;-80
2021/10/03 11:09:05;;;;;;;4.93;3.75;;;16.10;99.90;;;;;;5011183;28;20219;-78
2021/10/03 11:11:36;;;;;;;2.72;2.53;;;15.90;99.90;;;;;;5017669;28;20178;-80
2021/10/03 11:14:18;;;;;;;9.45;3.00;;;15.80;99.90;;;;;;5031700;28;20175;-80
2021/10/03 11:16:48;;;;;;;3.70;3.38;;;15.80;99.90;;;;;;5033915;28;20171;-78
2021/10/03 11:19:31;;;;;;;3.78;3.40;;;15.50;99.90;;;;;;5035758;28;20647;-79
2021/10/03 11:22:01;;;;;;;3.35;2.88;;;15.30;99.90;;;;;;5035023;28;20543;-81
2021/10/03 11:24:32;;;;;;;8.15;3.63;;;14.90;99.90;;;;;;5036257;28;20225;-81
2021/10/03 11:27:01;;;;;;;5.63;3.45;;;14.70;99.90;;;;;;5034374;28;20539;-79
2021/10/03 11:29:33;;;;;;;6.28;3.95;;;14.50;99.90;;;;;;5035028;28;20223;-79
2021/10/03 11:32:11;;;;;;;7.07;3.30;;;14.50;99.90;;;;;;5035796;28;20258;-84
2021/10/03 11:34:53;;;;;;;3.55;3.25;;;14.50;99.90;;;;;;5035632;28;20183;-79
2021/10/03 11:37:28;;;;;;;4.82;4.03;;;14.30;99.90;;;;;;5035802;28;20191;-77
2021/10/03 11:39:55;;;;;;;2.55;2.33;;;14.30;99.90;;;;;;5035916;28;20197;-78
2021/10/03 11:42:41;;;;;;;1.80;1.70;;;14.20;99.90;;;;;;5035362;28;20214;-78
2021/10/03 11:45:10;;;;;;;2.20;1.90;;;13.80;99.90;;;;;;5036096;28;20175;-82
2021/10/03 11:47:50;;;;;;;2.60;1.95;;;13.50;99.90;;;;;;5035096;28;20625;-79
2021/10/03 11:50:21;;;;;;;3.08;2.88;;;13.60;99.90;;;;;;5035117;28;20263;-79
2021/10/03 11:52:47;;;;;;;5.28;2.85;;;13.60;99.90;;;;;;5036301;28;20160;-80
2021/10/03 11:55:15;;;;;;;5.65;2.67;;;13.60;99.90;;;;;;5036490;28;20175;-81
2021/10/03 11:57:44;;;;;;;3.45;2.75;;;13.80;99.90;;;;;;5036066;28;20245;-78
2021/10/03 12:00:26;;;;;;;4.47;3.15;;;13.80;99.90;;;;;;5036101;28;20199;-78
2021/10/03 12:03:02;;;;;;;1.77;1.50;;;14.00;99.90;;;;;;5036197;28;20168;-78
2021/10/03 12:05:31;;;;;;;3.15;1.48;;;14.10;99.90;;;;;;5036709;28;20188;-80
2021/10/03 12:08:04;;;;;;;1.77;1.10;;;14.20;99.90;;;;;;5035607;28;20230;-80
2021/10/03 12:10:41;;;;;;;1.17;1.05;;;14.10;99.90;;;;;;5035499;28;20180;-81
2021/10/03 12:13:12;;;;;;;0.73;0.73;;;13.90;99.90;;;;;;5034760;28;20557;-79
2021/10/03 12:15:42;;;;;;;0.98;0.73;;;13.80;99.90;;;;;;5033724;28;20518;-80
2021/10/03 12:18:10;;;;;;;0.90;0.70;;;13.80;99.90;;;;;;5035349;28;20222;-83
2021/10/03 12:21:04;;;;;;;1.95;0.90;;;13.70;99.90;;;;;;5035866;28;20273;-81
2021/10/03 12:23:53;;;;;;;1.65;0.80;;;13.70;99.90;;;;;;5035301;28;20209;-80
2021/10/03 12:26:20;;;;;;;0.75;0.73;;;13.70;99.90;;;;;;5034926;28;20183;-79
2021/10/03 12:28:52;;;;;;;0.85;0.70;;;13.60;99.90;;;;;;5034575;28;20548;-80
2021/10/03 12:31:52;;;;;;;0.60;0.60;;;13.60;99.90;;;;;;5035273;28;20180;-80
2021/10/03 12:34:21;;;;;;;1.20;1.10;;;13.50;99.90;;;;;;5019205;28;20196;-79
2021/10/03 12:36:49;;;;;;;1.20;1.10;;;13.40;99.90;;;;;;5023167;28;20200;-78
2021/10/03 12:39:19;;;;;;;1.35;0.93;;;13.40;99.90;;;;;;5014259;28;20196;-78
2021/10/03 12:41:45;;;;;;;1.52;1.38;;;13.50;99.90;;;;;;5014904;28;20160;-86
2021/10/03 12:44:11;;;;;;;3.50;2.28;;;13.50;99.90;;;;;;5018122;28;20590;-87
2021/10/03 12:46:40;;;;;;;3.88;2.25;;;13.70;99.90;;;;;;5031558;28;20172;-87
2021/10/03 12:49:08;;;;;;;1.50;1.40;;;13.80;99.90;;;;;;5016010;28;20245;-78
2021/10/03 12:51:34;;;;;;;2.45;1.70;;;13.90;99.90;;;;;;5015922;28;20204;-80